sensor_id;sensor_type;location;lat;lon;timestamp;P1;durP1;ratioP1;P2;durP2;ratioP2
65035;SDS011;51603;49.300;8.880;2023-09-18T00:00:25;5.07;;;4.27;;
65035;SDS011;51603;49.300;8.880;2023-09-18T00:02:50;5.07;;;4.60;;
65035;SDS011;51603;49.300;8.880;2023-09-18T00:05:16;4.63;;;4.10;;
65035;SDS011;51603;49.300;8.880;2023-09-18T00:07:42;4.70;;;4.30;;
65035;SDS011;51603;49.300;8.880;2023-09-18T00:10:09;4.67;;;4.27;;
65035;SDS011;51603;49.300;8.880;2023-09-18T00:12:35;6.23;;;4.90;;
65035;SDS011;51603;49.300;8.880;2023-09-18T00:15:01;6.50;;;4.60;;
65035;SDS011;51603;49.300;8.880;2023-09-18T00:17:26;4.60;;;4.20;;
65035;SDS011;51603;49.300;8.880;2023-09-18T00:19:52;7.20;;;4.80;;
65035;SDS011;51603;49.300;8.880;2023-09-18T00:22:18;4.80;;;4.40;;
65035;SDS011;51603;49.300;8.880;2023-09-18T00:24:44;5.33;;;4.87;;
65035;SDS011;51603;49.300;8.880;2023-09-18T00:27:09;4.97;;;4.10;;
65035;SDS011;51603;49.300;8.880;2023-09-18T00:29:36;4.60;;;4.20;;
65035;SDS011;51603;49.300;8.880;2023-09-18T00:32:01;6.60;;;4.20;;
65035;SDS011;51603;49.300;8.880;2023-09-18T00:34:28;5.00;;;4.50;;
65035;SDS011;51603;49.300;8.880;2023-09-18T00:36:56;7.50;;;4.67;;
65035;SDS011;51603;49.300;8.880;2023-09-18T00:39:22;5.80;;;4.80;;
65035;SDS011;51603;49.300;8.880;2023-09-18T00:41:47;5.80;;;4.63;;
65035;SDS011;51603;49.300;8.880;2023-09-18T00:44:16;5.63;;;4.20;;
65035;SDS011;51603;49.300;8.880;2023-09-18T00:46:41;5.03;;;4.63;;
65035;SDS011;51603;49.300;8.880;2023-09-18T00:49:08;5.40;;;5.00;;
65035;SDS011;51603;49.300;8.880;2023-09-18T00:51:35;4.77;;;4.37;;
65035;SDS011;51603;49.300;8.880;2023-09-18T00:54:00;5.23;;;4.27;;
65035;SDS011;51603;49.300;8.880;2023-09-18T00:56:26;5.50;;;4.40;;
65035;SDS011;51603;49.300;8.880;2023-09-18T00:58:52;5.57;;;5.03;;
65035;SDS011;51603;49.300;8.880;2023-09-18T01:01:19;4.93;;;4.47;;
65035;SDS011;51603;49.300;8.880;2023-09-18T01:03:48;4.93;;;4.50;;
65035;SDS011;51603;49.300;8.880;2023-09-18T01:06:15;5.00;;;4.50;;
65035;SDS011;51603;49.300;8.880;2023-09-18T01:08:41;10.80;;;4.90;;
65035;SDS011;51603;49.300;8.880;2023-09-18T01:13:45;4.93;;;4.53;;
65035;SDS011;51603;49.300;8.880;2023-09-18T01:16:20;4.90;;;4.20;;
65035;SDS011;51603;49.300;8.880;2023-09-18T01:18:52;5.93;;;4.60;;
65035;SDS011;51603;49.300;8.880;2023-09-18T01:21:20;5.00;;;4.50;;
65035;SDS011;51603;49.300;8.880;2023-09-18T01:23:47;8.43;;;5.30;;
65035;SDS011;51603;49.300;8.880;2023-09-18T01:26:14;4.40;;;4.00;;
65035;SDS011;51603;49.300;8.880;2023-09-18T01:28:39;5.87;;;4.70;;
65035;SDS011;51603;49.300;8.880;2023-09-18T01:31:05;5.20;;;4.70;;
65035;SDS011;51603;49.300;8.880;2023-09-18T01:33:30;4.77;;;4.37;;
65035;SDS011;51603;49.300;8.880;2023-09-18T01:35:58;6.80;;;4.90;;
65035;SDS011;51603;49.300;8.880;2023-09-18T01:38:25;5.63;;;5.03;;
65035;SDS011;51603;49.300;8.880;2023-09-18T01:40:52;6.00;;;5.17;;
65035;SDS011;51603;49.300;8.880;2023-09-18T01:43:19;4.77;;;4.37;;
65035;SDS011;51603;49.300;8.880;2023-09-18T01:45:45;5.27;;;4.50;;
65035;SDS011;51603;49.300;8.880;2023-09-18T01:48:11;6.33;;;4.90;;
65035;SDS011;51603;49.300;8.880;2023-09-18T01:50:37;5.13;;;4.40;;
65035;SDS011;51603;49.300;8.880;2023-09-18T01:53:05;5.97;;;4.90;;
65035;SDS011;51603;49.300;8.880;2023-09-18T01:55:30;5.07;;;4.67;;
65035;SDS011;51603;49.300;8.880;2023-09-18T01:57:57;4.80;;;4.23;;
65035;SDS011;51603;49.300;8.880;2023-09-18T02:00:23;8.63;;;4.97;;
65035;SDS011;51603;49.300;8.880;2023-09-18T02:02:49;4.87;;;4.47;;
65035;SDS011;51603;49.300;8.880;2023-09-18T02:05:14;4.97;;;4.57;;
65035;SDS011;51603;49.300;8.880;2023-09-18T02:07:40;5.33;;;4.83;;
65035;SDS011;51603;49.300;8.880;2023-09-18T02:10:06;5.57;;;5.07;;
65035;SDS011;51603;49.300;8.880;2023-09-18T02:12:32;7.90;;;5.27;;
65035;SDS011;51603;49.300;8.880;2023-09-18T02:14:57;5.07;;;4.57;;
65035;SDS011;51603;49.300;8.880;2023-09-18T02:17:26;7.67;;;5.13;;
65035;SDS011;51603;49.300;8.880;2023-09-18T02:19:51;4.80;;;4.30;;
65035;SDS011;51603;49.300;8.880;2023-09-18T02:22:17;5.77;;;4.60;;
65035;SDS011;51603;49.300;8.880;2023-09-18T02:24:42;5.40;;;4.90;;
65035;SDS011;51603;49.300;8.880;2023-09-18T02:27:08;5.50;;;4.73;;
65035;SDS011;51603;49.300;8.880;2023-09-18T02:29:33;5.00;;;4.60;;
65035;SDS011;51603;49.300;8.880;2023-09-18T02:31:59;5.10;;;4.50;;
65035;SDS011;51603;49.300;8.880;2023-09-18T02:34:24;4.60;;;4.20;;
65035;SDS011;51603;49.300;8.880;2023-09-18T02:36:50;5.10;;;4.60;;
65035;SDS011;51603;49.300;8.880;2023-09-18T02:39:15;4.93;;;4.53;;
65035;SDS011;51603;49.300;8.880;2023-09-18T02:41:41;5.30;;;4.80;;
65035;SDS011;51603;49.300;8.880;2023-09-18T02:44:06;5.30;;;4.80;;
65035;SDS011;51603;49.300;8.880;2023-09-18T02:46:32;5.30;;;4.80;;
65035;SDS011;51603;49.300;8.880;2023-09-18T02:48:58;5.20;;;4.70;;
65035;SDS011;51603;49.300;8.880;2023-09-18T02:51:23;5.40;;;4.87;;
65035;SDS011;51603;49.300;8.880;2023-09-18T02:53:49;4.53;;;4.10;;
65035;SDS011;51603;49.300;8.880;2023-09-18T02:56:14;5.77;;;5.27;;
65035;SDS011;51603;49.300;8.880;2023-09-18T02:58:40;5.50;;;5.00;;
65035;SDS011;51603;49.300;8.880;2023-09-18T03:01:06;5.70;;;5.20;;
65035;SDS011;51603;49.300;8.880;2023-09-18T03:03:33;4.97;;;4.47;;
65035;SDS011;51603;49.300;8.880;2023-09-18T03:06:04;6.37;;;5.07;;
65035;SDS011;51603;49.300;8.880;2023-09-18T03:08:31;5.77;;;5.27;;
65035;SDS011;51603;49.300;8.880;2023-09-18T03:10:57;6.13;;;5.47;;
65035;SDS011;51603;49.300;8.880;2023-09-18T03:13:23;5.80;;;5.30;;
65035;SDS011;51603;49.300;8.880;2023-09-18T03:15:49;14.13;;;6.00;;
65035;SDS011;51603;49.300;8.880;2023-09-18T03:18:14;5.90;;;5.40;;
65035;SDS011;51603;49.300;8.880;2023-09-18T03:20:40;5.37;;;4.87;;
65035;SDS011;51603;49.300;8.880;2023-09-18T03:23:06;6.07;;;5.57;;
65035;SDS011;51603;49.300;8.880;2023-09-18T03:25:31;6.57;;;5.00;;
65035;SDS011;51603;49.300;8.880;2023-09-18T03:27:57;6.07;;;5.40;;
65035;SDS011;51603;49.300;8.880;2023-09-18T03:30:23;5.77;;;5.27;;
65035;SDS011;51603;49.300;8.880;2023-09-18T03:32:49;5.40;;;4.70;;
65035;SDS011;51603;49.300;8.880;2023-09-18T03:35:15;5.67;;;4.97;;
65035;SDS011;51603;49.300;8.880;2023-09-18T03:37:44;6.00;;;5.40;;
65035;SDS011;51603;49.300;8.880;2023-09-18T03:40:10;5.33;;;4.90;;
65035;SDS011;51603;49.300;8.880;2023-09-18T03:42:35;6.17;;;5.57;;
65035;SDS011;51603;49.300;8.880;2023-09-18T03:45:01;6.33;;;5.70;;
65035;SDS011;51603;49.300;8.880;2023-09-18T03:47:28;5.60;;;5.10;;
65035;SDS011;51603;49.300;8.880;2023-09-18T03:49:53;6.50;;;5.90;;
65035;SDS011;51603;49.300;8.880;2023-09-18T03:52:19;7.60;;;4.77;;
65035;SDS011;51603;49.300;8.880;2023-09-18T03:54:44;9.10;;;5.07;;
65035;SDS011;51603;49.300;8.880;2023-09-18T03:57:10;9.03;;;4.57;;
65035;SDS011;51603;49.300;8.880;2023-09-18T03:59:35;8.60;;;4.33;;
65035;SDS011;51603;49.300;8.880;2023-09-18T04:02:01;7.70;;;4.23;;
65035;SDS011;51603;49.300;8.880;2023-09-18T04:04:27;12.30;;;4.67;;
65035;SDS011;51603;49.300;8.880;2023-09-18T04:06:53;8.37;;;4.00;;
65035;SDS011;51603;49.300;8.880;2023-09-18T04:09:19;8.50;;;3.97;;
65035;SDS011;51603;49.300;8.880;2023-09-18T04:11:44;11.77;;;4.50;;
65035;SDS011;51603;49.300;8.880;2023-09-18T04:14:10;7.17;;;4.27;;
65035;SDS011;51603;49.300;8.880;2023-09-18T04:16:35;9.00;;;4.60;;
65035;SDS011;51603;49.300;8.880;2023-09-18T04:19:02;9.80;;;4.20;;
65035;SDS011;51603;49.300;8.880;2023-09-18T04:21:28;8.00;;;5.20;;
65035;SDS011;51603;49.300;8.880;2023-09-18T04:23:54;15.63;;;4.73;;
65035;SDS011;51603;49.300;8.880;2023-09-18T04:26:23;11.60;;;5.17;;
65035;SDS011;51603;49.300;8.880;2023-09-18T04:28:48;10.20;;;4.80;;
65035;SDS011;51603;49.300;8.880;2023-09-18T04:31:14;11.60;;;4.60;;
65035;SDS011;51603;49.300;8.880;2023-09-18T04:33:41;9.23;;;4.60;;
65035;SDS011;51603;49.300;8.880;2023-09-18T04:36:07;12.70;;;5.27;;
65035;SDS011;51603;49.300;8.880;2023-09-18T04:38:33;15.50;;;4.70;;
65035;SDS011;51603;49.300;8.880;2023-09-18T04:40:58;8.27;;;4.40;;
65035;SDS011;51603;49.300;8.880;2023-09-18T04:43:25;12.17;;;5.73;;
65035;SDS011;51603;49.300;8.880;2023-09-18T04:45:50;10.37;;;4.67;;
65035;SDS011;51603;49.300;8.880;2023-09-18T04:48:16;10.67;;;4.70;;
65035;SDS011;51603;49.300;8.880;2023-09-18T04:50:42;11.47;;;6.23;;
65035;SDS011;51603;49.300;8.880;2023-09-18T04:53:08;13.20;;;5.97;;
65035;SDS011;51603;49.300;8.880;2023-09-18T04:55:34;15.43;;;6.20;;
65035;SDS011;51603;49.300;8.880;2023-09-18T04:57:59;11.67;;;5.50;;
65035;SDS011;51603;49.300;8.880;2023-09-18T05:00:25;12.03;;;5.57;;
65035;SDS011;51603;49.300;8.880;2023-09-18T05:02:51;10.90;;;5.77;;
65035;SDS011;51603;49.300;8.880;2023-09-18T05:05:17;11.93;;;5.73;;
65035;SDS011;51603;49.300;8.880;2023-09-18T05:07:43;10.17;;;5.20;;
65035;SDS011;51603;49.300;8.880;2023-09-18T05:10:09;14.20;;;6.37;;
65035;SDS011;51603;49.300;8.880;2023-09-18T05:12:35;12.13;;;5.73;;
65035;SDS011;51603;49.300;8.880;2023-09-18T05:15:02;10.90;;;5.83;;
65035;SDS011;51603;49.300;8.880;2023-09-18T05:17:46;11.20;;;5.27;;
65035;SDS011;51603;49.300;8.880;2023-09-18T05:20:16;10.77;;;6.00;;
65035;SDS011;51603;49.300;8.880;2023-09-18T05:22:43;8.83;;;5.60;;
65035;SDS011;51603;49.300;8.880;2023-09-18T05:25:09;8.63;;;5.03;;
65035;SDS011;51603;49.300;8.880;2023-09-18T05:27:36;9.00;;;5.17;;
65035;SDS011;51603;49.300;8.880;2023-09-18T05:30:09;10.10;;;5.87;;
65035;SDS011;51603;49.300;8.880;2023-09-18T05:32:48;13.23;;;6.13;;
65035;SDS011;51603;49.300;8.880;2023-09-18T05:35:14;14.63;;;6.30;;
65035;SDS011;51603;49.300;8.880;2023-09-18T05:37:40;12.27;;;6.10;;
65035;SDS011;51603;49.300;8.880;2023-09-18T05:40:06;9.27;;;5.17;;
65035;SDS011;51603;49.300;8.880;2023-09-18T05:42:36;12.03;;;6.23;;
65035;SDS011;51603;49.300;8.880;2023-09-18T05:45:03;9.10;;;5.80;;
65035;SDS011;51603;49.300;8.880;2023-09-18T05:47:29;13.00;;;5.87;;
65035;SDS011;51603;49.300;8.880;2023-09-18T05:49:58;12.60;;;6.50;;
65035;SDS011;51603;49.300;8.880;2023-09-18T05:52:24;12.73;;;6.73;;
65035;SDS011;51603;49.300;8.880;2023-09-18T05:54:50;9.87;;;6.57;;
65035;SDS011;51603;49.300;8.880;2023-09-18T05:57:15;10.93;;;5.43;;
65035;SDS011;51603;49.300;8.880;2023-09-18T05:59:42;10.10;;;5.43;;
65035;SDS011;51603;49.300;8.880;2023-09-18T06:02:10;10.40;;;5.63;;
65035;SDS011;51603;49.300;8.880;2023-09-18T06:04:35;12.00;;;5.90;;
65035;SDS011;51603;49.300;8.880;2023-09-18T06:07:02;16.83;;;6.20;;
65035;SDS011;51603;49.300;8.880;2023-09-18T06:09:31;16.17;;;6.53;;
65035;SDS011;51603;49.300;8.880;2023-09-18T06:11:56;11.23;;;5.90;;
65035;SDS011;51603;49.300;8.880;2023-09-18T06:14:22;15.70;;;6.40;;
65035;SDS011;51603;49.300;8.880;2023-09-18T06:16:48;9.60;;;5.60;;
65035;SDS011;51603;49.300;8.880;2023-09-18T06:19:14;9.33;;;5.73;;
65035;SDS011;51603;49.300;8.880;2023-09-18T06:21:42;17.13;;;5.80;;
65035;SDS011;51603;49.300;8.880;2023-09-18T06:24:08;11.23;;;6.50;;
65035;SDS011;51603;49.300;8.880;2023-09-18T06:26:34;9.47;;;5.20;;
65035;SDS011;51603;49.300;8.880;2023-09-18T06:29:00;12.33;;;6.13;;
65035;SDS011;51603;49.300;8.880;2023-09-18T06:31:27;11.70;;;6.10;;
65035;SDS011;51603;49.300;8.880;2023-09-18T06:33:52;11.93;;;6.73;;
65035;SDS011;51603;49.300;8.880;2023-09-18T06:36:18;12.00;;;6.67;;
65035;SDS011;51603;49.300;8.880;2023-09-18T06:38:44;11.40;;;6.10;;
65035;SDS011;51603;49.300;8.880;2023-09-18T06:41:09;14.70;;;6.70;;
65035;SDS011;51603;49.300;8.880;2023-09-18T06:43:35;8.07;;;6.27;;
65035;SDS011;51603;49.300;8.880;2023-09-18T06:46:00;9.00;;;5.77;;
65035;SDS011;51603;49.300;8.880;2023-09-18T06:48:26;10.47;;;6.53;;
65035;SDS011;51603;49.300;8.880;2023-09-18T06:50:51;11.80;;;6.70;;
65035;SDS011;51603;49.300;8.880;2023-09-18T06:53:17;13.80;;;6.83;;
65035;SDS011;51603;49.300;8.880;2023-09-18T06:55:42;13.83;;;6.90;;
65035;SDS011;51603;49.300;8.880;2023-09-18T06:58:08;13.20;;;6.30;;
65035;SDS011;51603;49.300;8.880;2023-09-18T07:00:33;7.60;;;6.37;;
65035;SDS011;51603;49.300;8.880;2023-09-18T07:02:59;7.93;;;7.07;;
65035;SDS011;51603;49.300;8.880;2023-09-18T07:05:24;29.50;;;26.80;;
65035;SDS011;51603;49.300;8.880;2023-09-18T07:07:50;12.43;;;11.20;;
65035;SDS011;51603;49.300;8.880;2023-09-18T07:10:15;15.53;;;8.60;;
65035;SDS011;51603;49.300;8.880;2023-09-18T07:12:41;10.80;;;5.17;;
65035;SDS011;51603;49.300;8.880;2023-09-18T07:15:06;10.70;;;5.57;;
65035;SDS011;51603;49.300;8.880;2023-09-18T07:17:32;9.20;;;4.83;;
65035;SDS011;51603;49.300;8.880;2023-09-18T07:19:59;8.93;;;4.87;;
65035;SDS011;51603;49.300;8.880;2023-09-18T07:22:25;10.77;;;5.10;;
65035;SDS011;51603;49.300;8.880;2023-09-18T07:24:51;13.40;;;5.57;;
65035;SDS011;51603;49.300;8.880;2023-09-18T07:27:16;9.53;;;5.20;;
65035;SDS011;51603;49.300;8.880;2023-09-18T07:29:42;9.10;;;4.27;;
65035;SDS011;51603;49.300;8.880;2023-09-18T07:32:07;7.40;;;4.03;;
65035;SDS011;51603;49.300;8.880;2023-09-18T07:34:34;9.33;;;4.50;;
65035;SDS011;51603;49.300;8.880;2023-09-18T07:37:00;19.47;;;4.40;;
65035;SDS011;51603;49.300;8.880;2023-09-18T07:39:25;6.90;;;3.97;;
65035;SDS011;51603;49.300;8.880;2023-09-18T07:41:51;6.83;;;3.40;;
65035;SDS011;51603;49.300;8.880;2023-09-18T07:44:20;7.80;;;4.87;;
65035;SDS011;51603;49.300;8.880;2023-09-18T07:46:46;7.57;;;3.60;;
65035;SDS011;51603;49.300;8.880;2023-09-18T07:49:11;8.90;;;3.70;;
65035;SDS011;51603;49.300;8.880;2023-09-18T07:51:37;4.90;;;3.60;;
65035;SDS011;51603;49.300;8.880;2023-09-18T07:54:03;7.90;;;3.73;;
65035;SDS011;51603;49.300;8.880;2023-09-18T07:56:29;6.03;;;3.20;;
65035;SDS011;51603;49.300;8.880;2023-09-18T07:58:59;6.70;;;3.80;;
65035;SDS011;51603;49.300;8.880;2023-09-18T08:01:24;5.93;;;3.57;;
65035;SDS011;51603;49.300;8.880;2023-09-18T08:03:50;10.60;;;3.30;;
65035;SDS011;51603;49.300;8.880;2023-09-18T08:06:16;4.17;;;2.90;;
65035;SDS011;51603;49.300;8.880;2023-09-18T08:08:44;3.70;;;3.30;;
65035;SDS011;51603;49.300;8.880;2023-09-18T08:11:09;8.03;;;3.73;;
65035;SDS011;51603;49.300;8.880;2023-09-18T08:13:35;4.70;;;3.00;;
65035;SDS011;51603;49.300;8.880;2023-09-18T08:16:01;4.00;;;2.23;;
65035;SDS011;51603;49.300;8.880;2023-09-18T08:18:28;4.67;;;2.60;;
65035;SDS011;51603;49.300;8.880;2023-09-18T08:20:54;5.47;;;2.60;;
65035;SDS011;51603;49.300;8.880;2023-09-18T08:23:22;5.80;;;2.90;;
65035;SDS011;51603;49.300;8.880;2023-09-18T08:25:48;5.93;;;2.23;;
65035;SDS011;51603;49.300;8.880;2023-09-18T08:28:16;7.13;;;3.10;;
65035;SDS011;51603;49.300;8.880;2023-09-18T08:30:42;5.53;;;2.27;;
65035;SDS011;51603;49.300;8.880;2023-09-18T08:33:12;4.70;;;2.60;;
65035;SDS011;51603;49.300;8.880;2023-09-18T08:35:38;5.37;;;2.70;;
65035;SDS011;51603;49.300;8.880;2023-09-18T08:38:04;8.80;;;2.00;;
65035;SDS011;51603;49.300;8.880;2023-09-18T08:40:30;4.83;;;2.23;;
65035;SDS011;51603;49.300;8.880;2023-09-18T08:42:55;3.63;;;1.87;;
65035;SDS011;51603;49.300;8.880;2023-09-18T08:45:35;5.07;;;2.30;;
65035;SDS011;51603;49.300;8.880;2023-09-18T08:48:10;4.87;;;2.53;;
65035;SDS011;51603;49.300;8.880;2023-09-18T08:50:36;3.77;;;1.70;;
65035;SDS011;51603;49.300;8.880;2023-09-18T08:53:03;4.00;;;1.60;;
65035;SDS011;51603;49.300;8.880;2023-09-18T08:55:29;6.27;;;2.40;;
65035;SDS011;51603;49.300;8.880;2023-09-18T08:57:55;5.40;;;2.17;;
65035;SDS011;51603;49.300;8.880;2023-09-18T09:00:22;3.13;;;2.07;;
65035;SDS011;51603;49.300;8.880;2023-09-18T09:02:48;6.13;;;1.77;;
65035;SDS011;51603;49.300;8.880;2023-09-18T09:05:16;5.60;;;1.70;;
65035;SDS011;51603;49.300;8.880;2023-09-18T09:07:41;3.90;;;1.90;;
65035;SDS011;51603;49.300;8.880;2023-09-18T09:10:07;2.40;;;1.47;;
65035;SDS011;51603;49.300;8.880;2023-09-18T09:15:19;3.47;;;1.50;;
65035;SDS011;51603;49.300;8.880;2023-09-18T09:17:50;3.70;;;1.80;;
65035;SDS011;51603;49.300;8.880;2023-09-18T09:20:17;4.70;;;1.60;;
65035;SDS011;51603;49.300;8.880;2023-09-18T09:22:44;3.23;;;1.47;;
65035;SDS011;51603;49.300;8.880;2023-09-18T09:25:26;3.97;;;1.73;;
65035;SDS011;51603;49.300;8.880;2023-09-18T09:27:57;5.33;;;1.67;;
65035;SDS011;51603;49.300;8.880;2023-09-18T09:30:24;3.00;;;1.60;;
65035;SDS011;51603;49.300;8.880;2023-09-18T09:32:52;6.73;;;2.20;;
65035;SDS011;51603;49.300;8.880;2023-09-18T09:35:26;4.27;;;2.23;;
65035;SDS011;51603;49.300;8.880;2023-09-18T09:37:54;4.77;;;1.90;;
65035;SDS011;51603;49.300;8.880;2023-09-18T09:40:23;6.00;;;1.90;;
65035;SDS011;51603;49.300;8.880;2023-09-18T09:42:54;5.03;;;1.73;;
65035;SDS011;51603;49.300;8.880;2023-09-18T09:45:25;2.77;;;2.30;;
65035;SDS011;51603;49.300;8.880;2023-09-18T09:47:54;3.47;;;2.03;;
65035;SDS011;51603;49.300;8.880;2023-09-18T09:50:20;3.63;;;2.23;;
65035;SDS011;51603;49.300;8.880;2023-09-18T09:52:47;3.70;;;2.00;;
65035;SDS011;51603;49.300;8.880;2023-09-18T09:55:21;4.10;;;2.07;;
65035;SDS011;51603;49.300;8.880;2023-09-18T09:57:48;10.13;;;3.30;;
65035;SDS011;51603;49.300;8.880;2023-09-18T10:00:15;4.47;;;1.77;;
65035;SDS011;51603;49.300;8.880;2023-09-18T10:02:52;3.20;;;2.10;;
65035;SDS011;51603;49.300;8.880;2023-09-18T10:05:23;4.00;;;2.17;;
65035;SDS011;51603;49.300;8.880;2023-09-18T10:07:51;4.10;;;1.90;;
65035;SDS011;51603;49.300;8.880;2023-09-18T10:10:17;4.53;;;2.20;;
65035;SDS011;51603;49.300;8.880;2023-09-18T10:12:43;4.13;;;1.97;;
65035;SDS011;51603;49.300;8.880;2023-09-18T10:15:10;3.30;;;1.47;;
65035;SDS011;51603;49.300;8.880;2023-09-18T10:17:37;5.97;;;1.80;;
65035;SDS011;51603;49.300;8.880;2023-09-18T10:20:12;2.50;;;1.60;;
65035;SDS011;51603;49.300;8.880;2023-09-18T10:22:52;7.87;;;1.90;;
65035;SDS011;51603;49.300;8.880;2023-09-18T10:25:21;3.63;;;1.90;;
65035;SDS011;51603;49.300;8.880;2023-09-18T10:27:50;5.37;;;2.23;;
65035;SDS011;51603;49.300;8.880;2023-09-18T10:30:23;3.87;;;1.73;;
65035;SDS011;51603;49.300;8.880;2023-09-18T10:32:50;3.30;;;1.83;;
65035;SDS011;51603;49.300;8.880;2023-09-18T10:35:16;3.23;;;1.43;;
65035;SDS011;51603;49.300;8.880;2023-09-18T10:37:43;3.70;;;1.50;;
65035;SDS011;51603;49.300;8.880;2023-09-18T10:40:10;6.60;;;1.90;;
65035;SDS011;51603;49.300;8.880;2023-09-18T10:42:39;2.90;;;1.70;;
65035;SDS011;51603;49.300;8.880;2023-09-18T10:45:10;1.70;;;1.10;;
65035;SDS011;51603;49.300;8.880;2023-09-18T10:47:37;3.37;;;1.97;;
65035;SDS011;51603;49.300;8.880;2023-09-18T10:50:04;2.63;;;1.80;;
65035;SDS011;51603;49.300;8.880;2023-09-18T10:52:32;4.37;;;1.83;;
65035;SDS011;51603;49.300;8.880;2023-09-18T10:55:00;4.30;;;2.07;;
65035;SDS011;51603;49.300;8.880;2023-09-18T10:57:27;3.53;;;1.50;;
65035;SDS011;51603;49.300;8.880;2023-09-18T10:59:54;4.03;;;1.80;;
65035;SDS011;51603;49.300;8.880;2023-09-18T11:02:19;2.20;;;1.33;;
65035;SDS011;51603;49.300;8.880;2023-09-18T11:04:46;4.60;;;1.67;;
65035;SDS011;51603;49.300;8.880;2023-09-18T11:07:22;1.83;;;1.20;;
65035;SDS011;51603;49.300;8.880;2023-09-18T11:09:49;2.77;;;1.50;;
65035;SDS011;51603;49.300;8.880;2023-09-18T11:12:15;2.43;;;1.30;;
65035;SDS011;51603;49.300;8.880;2023-09-18T11:17:28;3.70;;;1.83;;
65035;SDS011;51603;49.300;8.880;2023-09-18T11:23:25;3.30;;;1.50;;
65035;SDS011;51603;49.300;8.880;2023-09-18T11:25:37;2.43;;;1.50;;
65035;SDS011;51603;49.300;8.880;2023-09-18T11:28:07;2.80;;;2.13;;
65035;SDS011;51603;49.300;8.880;2023-09-18T11:30:57;4.00;;;2.30;;
65035;SDS011;51603;49.300;8.880;2023-09-18T11:36:06;4.13;;;1.70;;
65035;SDS011;51603;49.300;8.880;2023-09-18T11:38:56;4.67;;;2.10;;
65035;SDS011;51603;49.300;8.880;2023-09-18T11:43:52;2.43;;;1.50;;
65035;SDS011;51603;49.300;8.880;2023-09-18T11:46:49;5.40;;;2.00;;
65035;SDS011;51603;49.300;8.880;2023-09-18T11:49:19;5.17;;;1.83;;
65035;SDS011;51603;49.300;8.880;2023-09-18T11:51:52;5.70;;;1.70;;
65035;SDS011;51603;49.300;8.880;2023-09-18T11:54:18;6.63;;;2.00;;
65035;SDS011;51603;49.300;8.880;2023-09-18T11:56:45;5.37;;;1.30;;
65035;SDS011;51603;49.300;8.880;2023-09-18T11:59:11;3.70;;;1.60;;
65035;SDS011;51603;49.300;8.880;2023-09-18T12:01:37;3.20;;;1.70;;
65035;SDS011;51603;49.300;8.880;2023-09-18T12:04:08;3.17;;;1.50;;
65035;SDS011;51603;49.300;8.880;2023-09-18T12:06:34;3.40;;;1.77;;
65035;SDS011;51603;49.300;8.880;2023-09-18T12:09:01;2.50;;;1.47;;
65035;SDS011;51603;49.300;8.880;2023-09-18T12:11:28;2.90;;;1.40;;
65035;SDS011;51603;49.300;8.880;2023-09-18T12:13:54;6.40;;;1.90;;
65035;SDS011;51603;49.300;8.880;2023-09-18T12:16:20;3.63;;;1.43;;
65035;SDS011;51603;49.300;8.880;2023-09-18T12:18:46;3.40;;;1.43;;
65035;SDS011;51603;49.300;8.880;2023-09-18T12:21:14;2.47;;;1.20;;
65035;SDS011;51603;49.300;8.880;2023-09-18T12:23:42;3.70;;;1.40;;
65035;SDS011;51603;49.300;8.880;2023-09-18T12:26:10;4.77;;;2.03;;
65035;SDS011;51603;49.300;8.880;2023-09-18T12:28:38;3.93;;;1.60;;
65035;SDS011;51603;49.300;8.880;2023-09-18T12:31:11;2.37;;;1.57;;
65035;SDS011;51603;49.300;8.880;2023-09-18T12:33:41;3.97;;;1.83;;
65035;SDS011;51603;49.300;8.880;2023-09-18T12:36:18;2.10;;;1.40;;
65035;SDS011;51603;49.300;8.880;2023-09-18T12:38:45;4.10;;;1.77;;
65035;SDS011;51603;49.300;8.880;2023-09-18T12:41:20;2.50;;;1.10;;
65035;SDS011;51603;49.300;8.880;2023-09-18T12:43:46;3.63;;;1.70;;
65035;SDS011;51603;49.300;8.880;2023-09-18T12:46:11;4.70;;;1.57;;
65035;SDS011;51603;49.300;8.880;2023-09-18T12:48:38;2.83;;;1.33;;
65035;SDS011;51603;49.300;8.880;2023-09-18T12:51:10;3.23;;;1.67;;
65035;SDS011;51603;49.300;8.880;2023-09-18T12:53:35;2.20;;;1.37;;
65035;SDS011;51603;49.300;8.880;2023-09-18T12:56:11;4.10;;;2.07;;
65035;SDS011;51603;49.300;8.880;2023-09-18T12:58:38;4.13;;;1.97;;
65035;SDS011;51603;49.300;8.880;2023-09-18T13:01:04;2.70;;;1.40;;
65035;SDS011;51603;49.300;8.880;2023-09-18T13:03:35;2.70;;;1.10;;
65035;SDS011;51603;49.300;8.880;2023-09-18T13:06:07;3.00;;;1.03;;
65035;SDS011;51603;49.300;8.880;2023-09-18T13:08:33;2.63;;;1.30;;
65035;SDS011;51603;49.300;8.880;2023-09-18T13:11:00;1.33;;;0.93;;
65035;SDS011;51603;49.300;8.880;2023-09-18T13:13:28;3.40;;;1.47;;
65035;SDS011;51603;49.300;8.880;2023-09-18T13:15:56;2.00;;;1.30;;
65035;SDS011;51603;49.300;8.880;2023-09-18T13:18:24;2.37;;;0.90;;
65035;SDS011;51603;49.300;8.880;2023-09-18T13:20:50;1.87;;;1.23;;
65035;SDS011;51603;49.300;8.880;2023-09-18T13:23:17;2.37;;;1.63;;
65035;SDS011;51603;49.300;8.880;2023-09-18T13:25:43;2.20;;;1.03;;
65035;SDS011;51603;49.300;8.880;2023-09-18T13:28:11;4.70;;;1.00;;
65035;SDS011;51603;49.300;8.880;2023-09-18T13:30:38;2.13;;;1.40;;
65035;SDS011;51603;49.300;8.880;2023-09-18T13:33:09;2.90;;;1.67;;
65035;SDS011;51603;49.300;8.880;2023-09-18T13:35:37;1.40;;;1.00;;
65035;SDS011;51603;49.300;8.880;2023-09-18T13:38:07;2.80;;;1.03;;
65035;SDS011;51603;49.300;8.880;2023-09-18T13:40:33;1.77;;;0.83;;
65035;SDS011;51603;49.300;8.880;2023-09-18T13:43:03;2.63;;;1.00;;
65035;SDS011;51603;49.300;8.880;2023-09-18T13:45:30;2.27;;;1.20;;
65035;SDS011;51603;49.300;8.880;2023-09-18T13:47:56;2.50;;;1.33;;
65035;SDS011;51603;49.300;8.880;2023-09-18T13:50:21;2.70;;;1.33;;
65035;SDS011;51603;49.300;8.880;2023-09-18T13:52:47;2.43;;;1.30;;
65035;SDS011;51603;49.300;8.880;2023-09-18T13:55:13;3.33;;;1.27;;
65035;SDS011;51603;49.300;8.880;2023-09-18T13:57:38;1.50;;;1.13;;
65035;SDS011;51603;49.300;8.880;2023-09-18T14:00:07;2.43;;;1.00;;
65035;SDS011;51603;49.300;8.880;2023-09-18T14:02:35;1.67;;;0.90;;
65035;SDS011;51603;49.300;8.880;2023-09-18T14:05:01;2.50;;;1.13;;
65035;SDS011;51603;49.300;8.880;2023-09-18T14:07:28;2.73;;;1.17;;
65035;SDS011;51603;49.300;8.880;2023-09-18T14:09:54;4.53;;;1.33;;
65035;SDS011;51603;49.300;8.880;2023-09-18T14:12:19;1.70;;;1.10;;
65035;SDS011;51603;49.300;8.880;2023-09-18T14:14:45;1.67;;;1.10;;
65035;SDS011;51603;49.300;8.880;2023-09-18T14:17:11;3.50;;;1.03;;
65035;SDS011;51603;49.300;8.880;2023-09-18T14:19:37;2.10;;;1.30;;
65035;SDS011;51603;49.300;8.880;2023-09-18T14:22:06;3.90;;;1.30;;
65035;SDS011;51603;49.300;8.880;2023-09-18T14:24:32;4.03;;;1.30;;
65035;SDS011;51603;49.300;8.880;2023-09-18T14:26:59;1.70;;;0.87;;
65035;SDS011;51603;49.300;8.880;2023-09-18T14:29:25;1.60;;;1.10;;
65035;SDS011;51603;49.300;8.880;2023-09-18T14:31:51;1.93;;;0.97;;
65035;SDS011;51603;49.300;8.880;2023-09-18T14:34:17;4.10;;;1.50;;
65035;SDS011;51603;49.300;8.880;2023-09-18T14:36:43;4.00;;;1.17;;
65035;SDS011;51603;49.300;8.880;2023-09-18T14:39:09;2.73;;;1.30;;
65035;SDS011;51603;49.300;8.880;2023-09-18T14:41:35;1.87;;;1.37;;
65035;SDS011;51603;49.300;8.880;2023-09-18T14:44:03;3.17;;;1.37;;
65035;SDS011;51603;49.300;8.880;2023-09-18T14:46:29;2.13;;;1.43;;
65035;SDS011;51603;49.300;8.880;2023-09-18T14:48:56;2.73;;;1.20;;
65035;SDS011;51603;49.300;8.880;2023-09-18T14:51:21;2.10;;;1.20;;
65035;SDS011;51603;49.300;8.880;2023-09-18T14:53:47;3.10;;;1.40;;
65035;SDS011;51603;49.300;8.880;2023-09-18T14:56:12;2.70;;;1.10;;
65035;SDS011;51603;49.300;8.880;2023-09-18T14:58:38;2.53;;;1.30;;
65035;SDS011;51603;49.300;8.880;2023-09-18T15:01:03;2.90;;;1.40;;